Time;durP1;ratioP1;P1;durP2;ratioP2;P2;SDS_P1;SDS_P2;PMS_P1;PMS_P2;Temp;Humidity;BMP_temperature;BMP_pressure;BME280_temperature;BME280_humidity;BME280_pressure;Samples;Min_cycle;Max_cycle;Signal;HPM_P1;HPM_P2
2021/11/07 00:06:57;;;;;;;4.85;2.50;;;10.50;99.90;;;;;;5015495;28;20538;-88
2021/11/07 00:10:31;;;;;;;16.38;2.40;;;10.60;99.90;;;;;;4999245;28;20045;-89
2021/11/07 00:12:21;;;;;;;6.15;1.73;;;10.50;99.90;;;;;;4999045;28;20532;-88
2021/11/07 00:14:50;;;;;;;9.45;1.92;;;10.70;99.90;;;;;;5000421;28;20049;-88
2021/11/07 00:17:17;;;;;;;18.70;2.00;;;10.60;99.90;;;;;;5016662;28;20041;-88
2021/11/07 00:19:49;;;;;;;8.27;1.65;;;10.70;99.90;;;;;;5015898;28;20397;-88
2021/11/07 00:22:31;;;;;;;10.60;2.38;;;10.70;99.90;;;;;;5016645;28;20042;-88
2021/11/07 00:25:16;;;;;;;13.07;2.00;;;10.80;99.90;;;;;;5002101;28;20045;-90
2021/11/07 00:27:48;;;;;;;14.63;2.10;;;10.80;99.90;;;;;;5015560;28;20594;-89
2021/11/07 00:30:22;;;;;;;6.45;1.77;;;10.80;99.90;;;;;;4999815;28;20492;-88
2021/11/07 00:33:06;;;;;;;11.48;2.15;;;10.70;99.90;;;;;;5015446;28;20597;-89
2021/11/07 00:38:18;;;;;;;10.55;1.95;;;10.80;99.90;;;;;;5015533;28;20115;-89
2021/11/07 00:43:25;;;;;;;8.20;1.60;;;10.70;99.90;;;;;;5015542;28;20061;-89
2021/11/07 00:51:16;;;;;;;6.78;1.42;;;10.70;99.90;;;;;;5015031;28;20099;-88
2021/11/07 00:59:04;;;;;;;10.18;2.00;;;10.70;99.90;;;;;;5015384;28;20041;-88
2021/11/07 01:01:35;;;;;;;4.40;1.00;;;10.70;99.90;;;;;;4999456;28;20088;-89
2021/11/07 01:04:03;;;;;;;4.13;0.75;;;10.70;99.90;;;;;;5014934;28;20075;-88
2021/11/07 01:06:30;;;;;;;7.05;1.25;;;10.80;99.90;;;;;;5014330;28;20041;-88
2021/11/07 01:08:57;;;;;;;7.63;1.60;;;10.70;99.90;;;;;;5014768;28;20049;-88
2021/11/07 01:11:23;;;;;;;8.90;1.48;;;10.70;99.90;;;;;;5014589;28;20079;-88
2021/11/07 01:13:49;;;;;;;13.50;1.80;;;10.70;99.90;;;;;;5013957;28;20088;-88
2021/11/07 01:16:16;;;;;;;12.77;2.00;;;10.80;99.90;;;;;;5014362;28;20049;-88
2021/11/07 01:18:41;;;;;;;17.00;2.00;;;10.80;99.90;;;;;;4981479;28;20049;-89
2021/11/07 01:21:11;;;;;;;14.93;2.00;;;10.80;99.90;;;;;;5014491;28;20053;-89
2021/11/07 01:23:42;;;;;;;12.95;2.28;;;10.80;99.90;;;;;;5014311;28;20139;-89
2021/11/07 01:26:18;;;;;;;14.77;2.95;;;10.90;99.90;;;;;;5014272;28;20137;-88
2021/11/07 01:28:48;;;;;;;13.80;2.60;;;10.90;99.90;;;;;;5013845;28;20103;-89
2021/11/07 01:31:14;;;;;;;19.98;2.38;;;11.00;99.90;;;;;;4997862;28;20072;-89
2021/11/07 01:33:41;;;;;;;14.05;2.70;;;11.00;99.90;;;;;;5013576;28;20081;-88
2021/11/07 01:36:34;;;;;;;18.50;3.72;;;11.10;99.90;;;;;;5014220;28;20038;-90
2021/11/07 01:42:02;;;;;;;18.38;3.72;;;11.10;99.90;;;;;;4998028;28;20115;-90
2021/11/07 01:44:14;;;;;;;24.15;4.70;;;11.10;99.90;;;;;;5013620;28;20049;-88
2021/11/07 01:46:47;;;;;;;21.00;3.40;;;11.20;99.90;;;;;;4997024;28;20122;-89
2021/11/07 01:49:17;;;;;;;20.67;4.20;;;11.20;99.90;;;;;;5013314;28;20108;-89
2021/11/07 01:51:52;;;;;;;24.17;4.30;;;11.20;99.90;;;;;;4997097;28;20037;-89
2021/11/07 01:54:26;;;;;;;34.03;5.45;;;11.20;99.90;;;;;;5013397;28;20037;-90
2021/11/07 01:56:52;;;;;;;27.33;4.93;;;11.30;99.90;;;;;;5013195;28;20063;-89
2021/11/07 01:59:18;;;;;;;26.75;4.35;;;11.30;99.90;;;;;;5013874;28;20034;-88
2021/11/07 02:01:50;;;;;;;20.13;3.70;;;11.30;99.90;;;;;;4997061;28;20088;-89
2021/11/07 02:04:16;;;;;;;37.80;5.05;;;11.30;99.90;;;;;;5014055;28;20416;-89
2021/11/07 02:06:41;;;;;;;40.67;5.15;;;11.30;99.90;;;;;;5013400;28;20041;-91
2021/11/07 02:09:07;;;;;;;38.70;5.00;;;11.30;99.90;;;;;;4997599;28;20045;-91
2021/11/07 02:11:33;;;;;;;33.42;5.18;;;11.30;99.90;;;;;;5013565;28;20369;-91
2021/11/07 02:14:00;;;;;;;26.88;5.05;;;11.30;99.90;;;;;;5013341;28;20080;-90
2021/11/07 02:16:25;;;;;;;24.98;5.35;;;11.30;99.90;;;;;;5013853;28;20128;-89
2021/11/07 02:18:52;;;;;;;27.25;4.63;;;11.20;99.90;;;;;;5013105;28;20645;-89
2021/11/07 02:21:17;;;;;;;35.58;5.18;;;11.30;99.90;;;;;;5013567;28;20049;-89
2021/11/07 02:23:43;;;;;;;26.20;4.40;;;11.30;99.90;;;;;;5013358;28;20045;-89
2021/11/07 02:26:09;;;;;;;31.55;5.22;;;11.30;99.90;;;;;;4996762;28;20493;-88
2021/11/07 02:28:42;;;;;;;31.63;4.43;;;11.30;99.90;;;;;;5013335;28;20103;-89
2021/11/07 02:31:11;;;;;;;28.58;5.50;;;11.30;99.90;;;;;;5013610;28;20053;-90
2021/11/07 02:33:38;;;;;;;30.02;4.90;;;11.30;99.90;;;;;;5012973;28;20470;-89
2021/11/07 02:36:06;;;;;;;30.83;4.78;;;11.30;99.90;;;;;;5013512;28;20373;-90
2021/11/07 02:38:32;;;;;;;27.13;4.05;;;11.20;99.90;;;;;;5013292;28;20050;-88
2021/11/07 02:40:58;;;;;;;30.25;4.15;;;11.20;99.90;;;;;;4996935;28;20060;-89
2021/11/07 02:43:24;;;;;;;24.88;4.35;;;11.30;99.90;;;;;;5013308;28;20136;-90
2021/11/07 02:45:49;;;;;;;24.70;4.30;;;11.20;99.90;;;;;;5012995;28;20438;-89
2021/11/07 02:48:15;;;;;;;29.13;4.82;;;11.20;99.90;;;;;;4997050;28;20092;-89
2021/11/07 02:50:41;;;;;;;23.48;4.57;;;11.10;99.90;;;;;;5012792;28;20034;-90
2021/11/07 02:53:07;;;;;;;32.22;4.88;;;11.00;99.90;;;;;;5013132;28;20037;-89
2021/11/07 02:55:32;;;;;;;24.40;4.28;;;10.90;99.90;;;;;;5013044;28;20170;-89
2021/11/07 02:57:59;;;;;;;27.02;3.90;;;10.80;99.90;;;;;;5013072;28;20072;-89
2021/11/07 03:00:29;;;;;;;19.92;4.18;;;10.80;99.90;;;;;;5013108;28;20106;-90
2021/11/07 03:02:55;;;;;;;18.88;3.30;;;10.70;99.90;;;;;;5016402;28;20071;-89
2021/11/07 03:05:21;;;;;;;21.25;3.15;;;10.60;99.90;;;;;;5016802;28;20376;-89
2021/11/07 03:07:47;;;;;;;19.20;4.00;;;10.60;99.90;;;;;;5015953;28;20152;-88
2021/11/07 03:10:14;;;;;;;24.50;4.32;;;10.50;99.90;;;;;;5016711;28;20142;-89
2021/11/07 03:12:40;;;;;;;21.63;4.22;;;10.60;99.90;;;;;;5016175;28;20050;-89
2021/11/07 03:15:11;;;;;;;26.63;4.38;;;10.50;99.90;;;;;;5016547;28;20041;-89
2021/11/07 03:17:36;;;;;;;27.10;4.85;;;10.50;99.90;;;;;;5015929;28;20076;-89
2021/11/07 03:20:04;;;;;;;47.03;6.93;;;10.50;99.90;;;;;;5016503;28;20041;-88
2021/11/07 03:22:30;;;;;;;28.95;3.38;;;10.50;99.90;;;;;;5016385;28;20049;-88
2021/11/07 03:24:57;;;;;;;39.35;5.57;;;10.50;99.90;;;;;;4999906;28;20045;-88
2021/11/07 03:27:36;;;;;;;24.00;4.30;;;10.50;99.90;;;;;;5033262;28;20132;-89
2021/11/07 03:30:07;;;;;;;19.20;3.28;;;10.50;99.90;;;;;;5016146;28;20435;-88
2021/11/07 03:32:36;;;;;;;28.27;4.35;;;10.40;99.90;;;;;;5016844;28;20059;-89
2021/11/07 03:35:04;;;;;;;34.35;4.30;;;10.50;99.90;;;;;;5015828;28;20064;-88
2021/11/07 03:37:37;;;;;;;29.23;4.38;;;10.40;99.90;;;;;;5016026;28;20152;-89
2021/11/07 03:40:07;;;;;;;28.42;4.38;;;10.40;99.90;;;;;;5016030;28;20465;-89
2021/11/07 03:42:34;;;;;;;26.15;3.75;;;10.40;99.90;;;;;;4999491;28;20038;-88
2021/11/07 03:45:00;;;;;;;29.42;4.57;;;10.40;99.90;;;;;;5015463;28;20083;-90
2021/11/07 03:47:26;;;;;;;30.10;4.47;;;10.40;99.90;;;;;;5016026;28;20416;-89
2021/11/07 03:49:53;;;;;;;32.70;4.28;;;10.40;99.90;;;;;;5015650;28;20477;-88
2021/11/07 03:52:19;;;;;;;26.58;3.40;;;10.40;99.90;;;;;;5015865;28;20041;-90
2021/11/07 03:54:46;;;;;;;27.27;4.25;;;10.40;99.90;;;;;;4998916;28;20499;-90
2021/11/07 03:57:12;;;;;;;36.17;4.53;;;10.30;99.90;;;;;;5015505;28;20112;-89
2021/11/07 03:59:42;;;;;;;28.85;3.88;;;10.30;99.90;;;;;;5015744;28;20038;-88
2021/11/07 04:02:09;;;;;;;26.08;4.72;;;10.30;99.90;;;;;;5015750;28;20041;-90
2021/11/07 04:04:36;;;;;;;21.10;4.28;;;10.30;99.90;;;;;;5015585;28;20041;-91
2021/11/07 04:07:02;;;;;;;23.65;3.63;;;10.30;99.90;;;;;;5015005;28;20119;-89
2021/11/07 04:09:28;;;;;;;30.42;4.90;;;10.30;99.90;;;;;;5015613;28;20135;-89
2021/11/07 04:11:54;;;;;;;26.63;4.40;;;10.20;99.90;;;;;;4998676;28;20240;-89
2021/11/07 04:14:19;;;;;;;24.15;4.25;;;10.30;99.90;;;;;;4998348;28;20045;-91
2021/11/07 04:16:45;;;;;;;31.95;4.68;;;10.20;99.90;;;;;;5014914;28;20056;-89
2021/11/07 04:19:11;;;;;;;32.72;4.47;;;10.30;99.90;;;;;;4998929;28;20056;-90
2021/11/07 04:21:38;;;;;;;19.58;3.38;;;10.20;99.90;;;;;;5015453;28;20038;-89
2021/11/07 04:24:04;;;;;;;35.13;5.32;;;10.20;99.90;;;;;;5014952;28;20068;-91
2021/11/07 04:26:30;;;;;;;29.73;5.03;;;10.10;99.90;;;;;;5014675;28;20045;-90
2021/11/07 04:28:56;;;;;;;32.60;5.57;;;10.20;99.90;;;;;;5014767;28;20056;-89
2021/11/07 04:31:22;;;;;;;37.70;6.13;;;10.10;99.90;;;;;;5015120;28;20401;-89
2021/11/07 04:33:48;;;;;;;31.33;4.13;;;10.10;99.90;;;;;;4998098;28;20045;-88
2021/11/07 04:36:13;;;;;;;27.90;4.72;;;10.00;99.90;;;;;;4998424;28;20041;-89
2021/11/07 04:38:40;;;;;;;23.48;4.20;;;9.90;99.90;;;;;;5015126;28;20080;-88
2021/11/07 04:41:06;;;;;;;19.70;3.70;;;9.80;99.90;;;;;;5014521;28;20427;-89
2021/11/07 04:43:33;;;;;;;27.58;4.43;;;9.60;99.90;;;;;;5015043;28;20385;-87
2021/11/07 04:45:59;;;;;;;23.45;4.20;;;9.40;99.90;;;;;;5014715;28;20183;-87
2021/11/07 04:48:25;;;;;;;34.20;4.15;;;9.30;99.90;;;;;;5015153;28;20676;-88
2021/11/07 04:50:51;;;;;;;28.60;4.00;;;9.20;99.90;;;;;;5014887;28;20076;-89
2021/11/07 04:53:21;;;;;;;27.80;3.72;;;9.10;99.90;;;;;;5014963;28;20041;-87
2021/11/07 04:55:48;;;;;;;24.90;3.83;;;9.10;99.90;;;;;;5014891;28;20094;-88
2021/11/07 04:58:15;;;;;;;24.27;3.47;;;9.00;99.90;;;;;;5014693;28;20056;-89
2021/11/07 05:00:42;;;;;;;30.33;3.92;;;8.90;99.90;;;;;;5014264;28;20053;-87
2021/11/07 05:03:08;;;;;;;33.22;4.35;;;8.90;99.90;;;;;;5014609;28;20064;-88
2021/11/07 05:05:35;;;;;;;19.65;3.63;;;8.80;99.90;;;;;;5014773;28;20062;-89
2021/11/07 05:08:01;;;;;;;25.52;3.90;;;8.80;99.90;;;;;;5013991;28;20045;-88
2021/11/07 05:10:27;;;;;;;20.70;3.05;;;8.80;99.90;;;;;;5014584;28;20052;-88
2021/11/07 05:12:53;;;;;;;20.17;3.53;;;8.70;99.90;;;;;;5014052;28;20045;-87
2021/11/07 05:15:19;;;;;;;45.05;4.93;;;8.80;99.90;;;;;;5014737;28;20041;-87
2021/11/07 05:17:45;;;;;;;27.13;4.20;;;8.80;99.90;;;;;;5014429;28;20042;-90
2021/11/07 05:20:12;;;;;;;23.15;3.60;;;8.70;99.90;;;;;;5014890;28;20103;-87
2021/11/07 05:22:38;;;;;;;33.75;5.55;;;8.80;99.90;;;;;;5015068;28;20088;-89
2021/11/07 05:25:06;;;;;;;27.83;4.07;;;8.80;99.90;;;;;;5014418;28;20381;-88
2021/11/07 05:27:33;;;;;;;29.80;4.70;;;8.80;99.90;;;;;;5014566;28;20560;-88
2021/11/07 05:29:59;;;;;;;26.40;4.28;;;8.80;99.90;;;;;;5014466;28;20128;-88
2021/11/07 05:32:25;;;;;;;33.97;4.72;;;8.80;99.90;;;;;;4998494;28;20053;-87
2021/11/07 05:34:51;;;;;;;17.45;2.45;;;8.90;99.90;;;;;;4998078;28;20045;-88
2021/11/07 05:37:17;;;;;;;23.63;3.97;;;8.90;99.90;;;;;;5014679;28;20077;-87
2021/11/07 05:39:43;;;;;;;26.60;3.88;;;8.80;99.90;;;;;;5014445;28;20038;-88
2021/11/07 05:42:10;;;;;;;24.92;3.75;;;8.80;99.90;;;;;;5013975;28;20072;-87
2021/11/07 05:44:36;;;;;;;31.13;5.75;;;8.80;99.90;;;;;;4998236;28;20363;-90
2021/11/07 05:47:03;;;;;;;20.13;2.90;;;8.80;99.90;;;;;;4997633;28;20127;-90
2021/11/07 05:49:28;;;;;;;24.05;3.50;;;8.70;99.90;;;;;;5013953;28;20079;-88
2021/11/07 05:51:54;;;;;;;31.20;4.47;;;8.70;99.90;;;;;;4997345;28;20038;-87
2021/11/07 05:54:20;;;;;;;21.35;2.92;;;8.70;99.90;;;;;;5031616;28;20110;-89
2021/11/07 05:56:46;;;;;;;21.23;3.28;;;8.60;99.90;;;;;;5014258;28;20033;-88
2021/11/07 05:59:11;;;;;;;24.30;3.25;;;8.60;99.90;;;;;;5013542;28;20048;-89
2021/11/07 06:01:37;;;;;;;18.35;3.05;;;8.60;99.90;;;;;;5013955;28;20124;-89
2021/11/07 06:04:04;;;;;;;21.58;3.50;;;8.50;99.90;;;;;;4997206;28;20060;-89
2021/11/07 06:06:30;;;;;;;17.80;3.00;;;8.50;99.90;;;;;;4997699;28;20049;-88
2021/11/07 06:08:56;;;;;;;23.73;3.88;;;8.50;99.90;;;;;;5030537;28;20481;-89
2021/11/07 06:11:21;;;;;;;21.98;3.58;;;8.60;99.90;;;;;;5013678;28;20096;-89
2021/11/07 06:13:48;;;;;;;20.75;3.75;;;8.50;99.90;;;;;;5013697;28;20380;-90
2021/11/07 06:16:14;;;;;;;20.95;3.80;;;8.50;99.90;;;;;;5013524;28;20045;-89
2021/11/07 06:18:40;;;;;;;16.70;2.55;;;8.50;99.90;;;;;;5013808;28;20052;-90
2021/11/07 06:21:08;;;;;;;20.35;4.00;;;8.50;99.90;;;;;;5013007;28;20053;-89
2021/11/07 06:23:34;;;;;;;20.48;4.03;;;8.50;99.90;;;;;;5013544;28;20084;-88
2021/11/07 06:26:01;;;;;;;23.00;2.95;;;8.50;99.90;;;;;;4996637;28;20057;-88
2021/11/07 06:28:27;;;;;;;24.17;3.45;;;8.50;99.90;;;;;;4997406;28;20477;-89
2021/11/07 06:30:54;;;;;;;27.40;3.70;;;8.40;99.90;;;;;;5012921;28;20042;-89
2021/11/07 06:33:20;;;;;;;19.50;2.63;;;8.40;99.90;;;;;;5013454;28;20045;-89
2021/11/07 06:35:46;;;;;;;22.67;3.92;;;8.40;99.90;;;;;;5013933;28;20049;-89
2021/11/07 06:38:12;;;;;;;24.17;3.75;;;8.30;99.90;;;;;;5016674;28;20052;-88
2021/11/07 06:40:40;;;;;;;17.40;3.50;;;8.30;99.90;;;;;;5017387;28;20120;-88
2021/11/07 06:43:07;;;;;;;25.42;3.80;;;8.20;99.90;;;;;;5016848;28;20053;-88
2021/11/07 06:45:34;;;;;;;18.50;3.35;;;8.20;99.90;;;;;;5000487;28;20462;-88
2021/11/07 06:48:01;;;;;;;24.67;3.38;;;8.10;99.90;;;;;;5017109;28;20052;-89
2021/11/07 06:50:27;;;;;;;20.80;2.72;;;8.10;99.90;;;;;;5000740;28;20052;-89
2021/11/07 06:52:53;;;;;;;27.00;3.80;;;8.10;99.90;;;;;;5016736;28;20081;-89
2021/11/07 06:55:19;;;;;;;27.60;4.05;;;8.10;99.90;;;;;;5016937;28;20154;-90
2021/11/07 06:57:46;;;;;;;34.17;3.40;;;8.10;99.90;;;;;;5016759;28;20040;-89
2021/11/07 07:00:16;;;;;;;26.23;4.00;;;8.10;99.90;;;;;;5016455;28;20080;-89
2021/11/07 07:02:42;;;;;;;30.20;3.28;;;8.20;99.90;;;;;;5016710;28;20099;-89
2021/11/07 07:05:10;;;;;;;23.58;3.33;;;8.20;99.90;;;;;;5016544;28;20048;-90
2021/11/07 07:07:38;;;;;;;22.58;3.78;;;8.10;99.90;;;;;;5016928;28;20045;-91
2021/11/07 07:10:08;;;;;;;30.23;4.97;;;8.10;99.90;;;;;;5016404;28;20103;-86
2021/11/07 07:12:42;;;;;;;23.30;3.50;;;8.10;99.90;;;;;;5016874;28;20053;-89
2021/11/07 07:15:13;;;;;;;19.13;3.90;;;8.20;99.90;;;;;;5016485;28;20052;-89
2021/11/07 07:30:51;;;;;;;34.92;5.22;;;8.40;99.90;;;;;;5017022;28;20049;-87
2021/11/07 07:35:48;;;;;;;30.25;4.47;;;8.30;99.90;;;;;;5017396;28;20128;-87
2021/11/07 07:38:14;;;;;;;34.90;4.70;;;8.20;99.90;;;;;;5016966;28;20133;-89
2021/11/07 07:40:40;;;;;;;35.50;5.10;;;8.20;99.90;;;;;;5000972;28;20242;-87
2021/11/07 07:43:06;;;;;;;30.48;4.25;;;8.20;99.90;;;;;;5000724;28;20049;-88
2021/11/07 07:45:32;;;;;;;24.92;4.43;;;8.20;99.90;;;;;;5000868;28;20556;-87
2021/11/07 07:48:00;;;;;;;26.45;4.30;;;8.20;99.90;;;;;;5016560;28;20037;-90
2021/11/07 07:50:26;;;;;;;36.25;5.18;;;8.20;99.90;;;;;;5016985;28;20053;-88
2021/11/07 07:52:52;;;;;;;27.50;4.43;;;8.20;99.90;;;;;;5016762;28;20041;-88
2021/11/07 07:55:18;;;;;;;34.80;5.15;;;8.20;99.90;;;;;;5000370;28;20038;-87
2021/11/07 07:57:47;;;;;;;30.88;4.50;;;8.30;99.90;;;;;;5016161;28;20056;-87
2021/11/07 08:00:15;;;;;;;19.75;3.65;;;8.30;99.90;;;;;;5000177;28;20128;-88
2021/11/07 08:02:42;;;;;;;41.08;5.28;;;8.40;99.90;;;;;;5016497;28;20053;-88
2021/11/07 08:05:09;;;;;;;29.90;4.93;;;8.40;99.90;;;;;;5015946;28;20099;-88
2021/11/07 08:07:35;;;;;;;26.50;4.47;;;8.50;99.90;;;;;;5016210;28;20049;-88
2021/11/07 08:10:00;;;;;;;23.20;3.35;;;8.60;99.90;;;;;;4999840;28;20096;-89
2021/11/07 08:12:26;;;;;;;35.40;4.60;;;8.70;99.90;;;;;;5016346;28;20048;-88
2021/11/07 08:14:52;;;;;;;23.65;4.15;;;8.70;99.90;;;;;;5000009;28;20045;-87
2021/11/07 08:17:18;;;;;;;29.40;3.65;;;8.80;99.90;;;;;;5015861;28;20045;-89
2021/11/07 08:19:45;;;;;;;31.90;6.05;;;8.90;99.90;;;;;;4999442;28;20088;-89
2021/11/07 08:22:12;;;;;;;31.65;4.15;;;9.00;99.90;;;;;;5015786;28;20052;-89
2021/11/07 08:24:38;;;;;;;28.33;2.88;;;9.00;99.90;;;;;;5015906;28;20049;-89
2021/11/07 08:27:05;;;;;;;41.22;5.00;;;9.10;99.90;;;;;;5011497;28;20053;-87
2021/11/07 08:29:31;;;;;;;23.58;3.63;;;9.20;99.90;;;;;;5012297;28;20096;-88
2021/11/07 08:31:58;;;;;;;41.42;4.32;;;9.20;99.90;;;;;;5012214;28;20096;-87
2021/11/07 08:34:27;;;;;;;34.05;4.65;;;9.30;99.90;;;;;;4995480;28;20060;-88
2021/11/07 08:37:09;;;;;;;14.73;2.90;;;9.20;99.90;;;;;;4996110;28;20127;-89
2021/11/07 08:39:55;;;;;;;28.20;4.22;;;9.20;99.90;;;;;;5012015;28;20073;-89
2021/11/07 08:42:34;;;;;;;34.72;4.97;;;9.20;99.90;;;;;;5011804;28;20057;-88
2021/11/07 09:02:11;;;;;;;32.05;4.88;;;9.80;99.90;;;;;;5011572;28;20042;-89
2021/11/07 09:09:41;;;;;;;16.30;3.20;;;9.80;99.90;;;;;;5012033;28;20451;-88
2021/11/07 09:12:08;;;;;;;22.48;4.38;;;9.90;99.90;;;;;;5011357;28;20046;-91
2021/11/07 09:14:37;;;;;;;29.42;3.80;;;10.10;99.90;;;;;;5011442;28;20042;-90
2021/11/07 09:17:06;;;;;;;26.70;4.05;;;10.20;99.90;;;;;;5011667;28;20057;-91
2021/11/07 09:19:34;;;;;;;25.40;4.57;;;10.20;99.90;;;;;;5011309;28;20069;-92
2021/11/07 09:22:26;;;;;;;24.95;4.03;;;10.30;99.90;;;;;;5011348;28;20390;-91
2021/11/07 09:24:55;;;;;;;25.40;3.80;;;10.20;99.90;;;;;;5010463;28;20397;-90
2021/11/07 09:32:45;;;;;;;30.77;4.28;;;9.90;99.90;;;;;;4994264;28;20041;-88
2021/11/07 09:35:32;;;;;;;22.92;3.70;;;9.80;99.90;;;;;;5007796;28;20100;-88
2021/11/07 09:38:06;;;;;;;24.75;4.18;;;9.80;99.90;;;;;;4994711;28;20057;-89
2021/11/07 09:40:34;;;;;;;25.23;3.85;;;9.90;99.90;;;;;;5007878;28;20099;-87
2021/11/07 09:43:20;;;;;;;21.98;3.88;;;10.00;99.90;;;;;;4991716;28;20100;-89
2021/11/07 09:46:04;;;;;;;22.33;3.53;;;10.00;99.90;;;;;;4992225;28;20048;-87
2021/11/07 09:48:34;;;;;;;23.30;4.00;;;10.10;99.90;;;;;;5007532;28;20139;-89
2021/11/07 09:51:00;;;;;;;29.67;3.50;;;10.20;99.90;;;;;;5008037;28;20041;-87
2021/11/07 09:53:26;;;;;;;20.80;3.25;;;10.30;99.90;;;;;;5007326;28;20658;-89
2021/11/07 09:55:52;;;;;;;19.23;3.28;;;10.20;99.90;;;;;;5007973;28;20609;-88
2021/11/07 09:58:19;;;;;;;20.08;4.43;;;10.10;99.90;;;;;;4991420;28;20104;-89
2021/11/07 10:00:49;;;;;;;19.30;3.65;;;10.10;99.90;;;;;;5008024;28;20425;-88
2021/11/07 10:03:17;;;;;;;19.75;4.13;;;10.10;99.90;;;;;;5006905;28;20049;-87
2021/11/07 10:05:47;;;;;;;27.42;4.32;;;10.10;99.90;;;;;;5007624;28;20068;-88
2021/11/07 10:08:15;;;;;;;29.00;4.30;;;10.20;99.90;;;;;;5007909;28;20125;-90
2021/11/07 10:11:16;;;;;;;18.92;2.95;;;10.20;99.90;;;;;;5009760;28;20445;-88
2021/11/07 10:13:36;;;;;;;11.93;2.10;;;10.20;99.90;;;;;;5009529;28;20042;-89
2021/11/07 10:16:06;;;;;;;31.73;4.60;;;10.30;99.90;;;;;;4995425;28;20389;-89
2021/11/07 10:19:01;;;;;;;18.05;3.35;;;10.30;99.90;;;;;;5011757;28;20049;-89
2021/11/07 10:21:34;;;;;;;16.20;2.35;;;10.30;99.90;;;;;;4995490;28;20484;-88
2021/11/07 10:24:04;;;;;;;13.68;2.83;;;10.30;99.90;;;;;;5012111;28;20063;-87
2021/11/07 10:26:35;;;;;;;;;;;10.30;99.90;;;;;;5013086;28;20046;-89
2021/11/07 10:29:03;;;;;;;;;;;10.30;99.90;;;;;;5013273;28;19921;-87
2021/11/07 10:31:46;;;;;;;10.63;2.67;;;10.40;99.90;;;;;;4996014;28;19925;-88
2021/11/07 10:40:27;;;;;;;17.13;2.70;;;10.60;99.90;;;;;;4990644;28;20054;-88
2021/11/07 10:53:26;;;;;;;18.05;3.00;;;10.00;99.90;;;;;;5011991;28;20137;-89
2021/11/07 10:55:55;;;;;;;15.60;2.75;;;10.00;99.90;;;;;;5012391;28;20095;-90
2021/11/07 10:58:31;;;;;;;14.88;2.58;;;10.00;99.90;;;;;;4996146;28;20052;-89
2021/11/07 11:01:01;;;;;;;16.38;3.08;;;10.10;99.90;;;;;;4996147;28;20105;-90
2021/11/07 11:03:27;;;;;;;15.57;3.33;;;10.20;99.90;;;;;;4995792;28;20042;-90
2021/11/07 11:06:20;;;;;;;18.45;3.13;;;10.30;99.90;;;;;;4995877;28;20484;-91
2021/11/07 11:11:39;;;;;;;21.55;3.78;;;10.50;99.90;;;;;;5012147;28;20049;-90
2021/11/07 11:14:29;;;;;;;21.83;3.53;;;10.70;99.90;;;;;;5012743;28;20034;-92
2021/11/07 11:33:15;;;;;;;17.52;3.17;;;11.00;99.90;;;;;;4993549;28;20485;-89
2021/11/07 11:35:53;;;;;;;27.02;3.67;;;11.10;99.90;;;;;;4977405;28;20517;-88
2021/11/07 11:43:18;;;;;;;28.90;4.68;;;10.60;99.90;;;;;;4993974;28;20081;-88
2021/11/07 11:45:47;;;;;;;26.45;3.42;;;10.50;99.90;;;;;;4994080;28;20382;-87
2021/11/07 11:56:51;;;;;;;20.98;4.35;;;10.10;99.90;;;;;;4994126;28;20052;-89
2021/11/07 11:59:33;;;;;;;22.95;3.40;;;10.10;99.90;;;;;;4979193;28;20054;-93
2021/11/07 12:02:24;;;;;;;24.02;3.58;;;10.00;99.90;;;;;;4977576;28;20042;-90
2021/11/07 12:05:30;;;;;;;26.60;4.30;;;10.10;99.90;;;;;;4993721;28;20042;-90
2021/11/07 12:10:43;;;;;;;44.92;5.57;;;10.20;99.90;;;;;;4995847;28;20053;-86
2021/11/07 12:13:58;;;;;;;44.20;4.47;;;9.90;99.90;;;;;;4990952;28;20077;-84
2021/11/07 12:16:54;;;;;;;13.90;2.50;;;9.30;99.90;;;;;;4992311;28;20042;-84
2021/11/07 12:19:42;;;;;;;31.83;3.65;;;8.70;99.90;;;;;;4992640;28;20125;-87
2021/11/07 12:22:12;;;;;;;25.38;4.53;;;8.50;99.90;;;;;;4993161;28;20047;-85
2021/11/07 12:24:47;;;;;;;23.35;3.25;;;8.70;99.90;;;;;;4992863;28;20057;-85
2021/11/07 12:27:34;;;;;;;26.85;3.90;;;8.60;99.90;;;;;;5005217;28;20054;-86
2021/11/07 12:30:17;;;;;;;29.20;3.97;;;8.60;99.90;;;;;;5012527;28;20053;-86
2021/11/07 12:32:46;;;;;;;22.05;4.22;;;8.80;99.90;;;;;;5012482;28;20099;-88
2021/11/07 12:35:39;;;;;;;25.75;3.60;;;8.70;99.90;;;;;;5012227;28;20184;-88
2021/11/07 12:41:04;;;;;;;20.73;3.90;;;8.60;99.90;;;;;;5012956;28;20049;-88
2021/11/07 12:43:33;;;;;;;20.20;3.33;;;8.50;99.90;;;;;;5012729;28;20052;-87
2021/11/07 12:46:12;;;;;;;23.38;3.45;;;8.50;99.90;;;;;;4996449;28;20041;-88
2021/11/07 12:49:18;;;;;;;20.17;2.88;;;8.70;99.90;;;;;;4995997;28;20042;-88
2021/11/07 12:51:47;;;;;;;31.92;5.78;;;8.80;99.90;;;;;;4996119;28;20050;-89
2021/11/07 12:54:29;;;;;;;29.97;4.87;;;9.00;99.90;;;;;;5012470;28;20088;-90
2021/11/07 12:57:05;;;;;;;35.47;5.35;;;9.20;99.90;;;;;;4995220;28;20596;-88
2021/11/07 12:59:51;;;;;;;47.13;5.78;;;9.40;99.90;;;;;;4993651;28;20057;-89
2021/11/07 13:02:32;;;;;;;31.35;5.78;;;9.50;99.90;;;;;;5010908;28;20053;-89
2021/11/07 13:05:13;;;;;;;33.05;4.40;;;9.60;99.90;;;;;;4994570;28;20081;-88
2021/11/07 13:07:45;;;;;;;26.33;4.45;;;9.70;99.90;;;;;;5010704;28;20038;-88
2021/11/07 13:10:20;;;;;;;39.55;4.88;;;9.70;99.90;;;;;;5010635;28;20049;-88
2021/11/07 13:12:56;;;;;;;30.75;4.78;;;9.80;99.90;;;;;;4993436;28;20134;-88
2021/11/07 13:21:27;;;;;;;18.80;4.32;;;9.90;99.90;;;;;;5011127;28;20133;-92
2021/11/07 13:24:08;;;;;;;38.60;4.95;;;9.90;99.90;;;;;;4995222;28;20041;-88
2021/11/07 13:34:35;;;;;;;11.02;2.58;;;9.70;99.90;;;;;;5011780;28;20061;-88
2021/11/07 13:37:04;;;;;;;11.27;2.22;;;9.60;99.90;;;;;;5012055;28;20056;-90
2021/11/07 13:39:36;;;;;;;11.63;2.17;;;9.60;99.90;;;;;;4979336;28;20089;-90
2021/11/07 13:42:13;;;;;;;22.58;3.05;;;9.70;99.90;;;;;;4995812;28;20520;-89
2021/11/07 13:45:00;;;;;;;11.98;2.10;;;9.80;99.90;;;;;;5011778;28;20082;-89
2021/11/07 13:47:30;;;;;;;11.30;2.25;;;9.80;99.90;;;;;;4995582;28;20053;-92
2021/11/07 13:49:59;;;;;;;33.88;4.30;;;9.90;99.90;;;;;;4995728;28;20049;-89
2021/11/07 13:52:29;;;;;;;19.30;3.15;;;10.10;99.90;;;;;;5011834;28;20048;-93
2021/11/07 13:54:55;;;;;;;19.70;3.40;;;10.20;99.90;;;;;;5011679;28;20041;-88
2021/11/07 13:57:30;;;;;;;27.77;3.72;;;10.20;99.90;;;;;;4995474;28;20069;-88
2021/11/07 13:59:57;;;;;;;19.77;3.63;;;10.20;99.90;;;;;;5011869;28;20042;-87
2021/11/07 14:02:25;;;;;;;20.33;2.83;;;10.00;99.90;;;;;;4995526;28;20053;-87
2021/11/07 14:04:56;;;;;;;23.10;3.85;;;9.90;99.90;;;;;;5011738;28;20164;-88
2021/11/07 14:07:32;;;;;;;10.90;1.55;;;9.90;99.90;;;;;;5012002;28;20132;-89
2021/11/07 14:10:12;;;;;;;19.08;3.45;;;9.80;99.90;;;;;;5011755;28;20055;-87
2021/11/07 14:12:45;;;;;;;22.63;4.55;;;9.90;99.90;;;;;;5011714;28;20133;-88
2021/11/07 14:15:31;;;;;;;17.50;2.88;;;9.90;99.90;;;;;;5011804;28;20049;-87
2021/11/07 14:18:29;;;;;;;16.20;3.45;;;9.80;99.90;;;;;;4995328;28;20069;-87
2021/11/07 14:21:05;;;;;;;18.23;3.00;;;9.70;99.90;;;;;;4996374;28;20116;-88
2021/11/07 14:26:14;;;;;;;33.95;4.93;;;9.40;99.90;;;;;;5014423;28;20054;-87
2021/11/07 14:29:30;;;;;;;20.77;3.10;;;9.30;99.90;;;;;;5014758;28;20385;-87
2021/11/07 14:32:04;;;;;;;28.58;3.75;;;9.20;99.90;;;;;;5013936;28;20072;-87
2021/11/07 14:42:29;;;;;;;18.08;2.58;;;8.90;99.90;;;;;;5014389;28;20041;-87
2021/11/07 14:45:15;;;;;;;25.58;3.97;;;8.90;99.90;;;;;;5014715;28;20115;-87
2021/11/07 14:47:58;;;;;;;15.02;2.58;;;8.80;99.90;;;;;;5014144;28;20128;-87
2021/11/07 14:53:01;;;;;;;19.52;3.17;;;8.80;99.90;;;;;;5013209;28;20049;-86
2021/11/07 14:55:47;;;;;;;19.08;3.40;;;8.80;99.90;;;;;;5010467;28;20077;-90
2021/11/07 15:01:19;;;;;;;19.83;3.17;;;8.70;99.90;;;;;;5014103;28;20075;-85
2021/11/07 15:04:02;;;;;;;21.33;3.25;;;8.70;99.90;;;;;;5013066;28;20443;-86
2021/11/07 15:06:42;;;;;;;23.50;4.20;;;8.70;99.90;;;;;;5013755;28;20397;-85
2021/11/07 15:09:23;;;;;;;19.48;3.13;;;8.70;99.90;;;;;;5013886;28;20049;-85
2021/11/07 15:15:45;;;;;;;9.13;2.55;;;8.80;99.90;;;;;;5013160;28;20107;-86
2021/11/07 15:24:14;;;;;;;20.08;3.17;;;8.70;99.90;;;;;;5013293;28;20072;-87
2021/11/07 15:26:52;;;;;;;12.98;2.53;;;8.70;99.90;;;;;;5012644;28;20393;-85
2021/11/07 15:29:19;;;;;;;23.27;3.17;;;8.70;99.90;;;;;;5013289;28;20049;-86
2021/11/07 15:31:46;;;;;;;28.95;3.78;;;8.70;99.90;;;;;;5012858;28;20048;-87
2021/11/07 15:34:25;;;;;;;22.48;3.63;;;8.70;99.90;;;;;;5013178;28;20059;-86
2021/11/07 15:36:51;;;;;;;20.52;3.95;;;8.70;99.90;;;;;;5012718;28;20111;-86
2021/11/07 15:39:21;;;;;;;16.52;2.50;;;8.70;99.90;;;;;;5014584;28;20629;-88
2021/11/07 15:42:04;;;;;;;;;;;8.50;99.90;;;;;;5014897;28;20132;-84
2021/11/07 15:44:36;;;;;;;6.28;1.80;;;8.40;99.90;;;;;;5015647;28;19917;-89